createdAt,value
2023-03-17T00:00:48.843Z,0.00
2023-03-17T00:01:48.817Z,0.00
2023-03-17T00:02:48.871Z,0.00
2023-03-17T00:03:48.757Z,0.00
2023-03-17T00:04:48.720Z,0.00
2023-03-17T00:05:48.683Z,0.00
2023-03-17T00:06:48.757Z,0.00
2023-03-17T00:07:48.626Z,0.00
2023-03-17T00:08:48.587Z,0.00
2023-03-17T00:09:48.556Z,0.00
2023-03-17T00:10:48.525Z,0.00
2023-03-17T00:11:48.498Z,0.00
2023-03-17T00:12:48.461Z,0.00
2023-03-17T00:13:48.431Z,0.00
2023-03-17T00:14:48.450Z,0.00
2023-03-17T00:15:48.418Z,0.00
2023-03-17T00:16:48.356Z,0.00
2023-03-17T00:17:48.303Z,0.00
2023-03-17T00:18:48.284Z,0.00
2023-03-17T00:19:48.241Z,0.00
2023-03-17T00:20:48.207Z,0.00
2023-03-17T00:21:48.180Z,0.00
2023-03-17T00:22:48.167Z,0.00
2023-03-17T00:23:48.113Z,0.00
2023-03-17T00:24:48.079Z,0.00
2023-03-17T00:25:48.058Z,0.00
2023-03-17T00:26:48.018Z,0.00
2023-03-17T00:27:47.987Z,0.00
2023-03-17T00:28:47.952Z,0.00
2023-03-17T00:29:47.922Z,0.00
2023-03-17T00:30:47.895Z,0.00
2023-03-17T00:31:47.860Z,0.00
2023-03-17T00:32:47.878Z,0.00
2023-03-17T00:33:47.796Z,0.00
2023-03-17T00:34:47.764Z,0.00
2023-03-17T00:35:47.757Z,0.00
2023-03-17T00:36:47.700Z,0.00
2023-03-17T00:37:47.669Z,0.00
2023-03-17T00:38:47.675Z,0.00
2023-03-17T00:39:47.607Z,0.00
2023-03-17T00:40:47.577Z,0.00
2023-03-17T00:41:47.543Z,0.00
2023-03-17T00:42:47.515Z,0.00
2023-03-17T00:43:47.481Z,0.00
2023-03-17T00:44:47.446Z,0.00
2023-03-17T00:45:47.415Z,0.00
2023-03-17T00:46:47.478Z,0.00
2023-03-17T00:47:47.352Z,0.00
2023-03-17T00:48:47.320Z,0.00
2023-03-17T00:49:47.288Z,0.00
2023-03-17T00:50:47.259Z,0.00
2023-03-17T00:51:47.226Z,0.00
2023-03-17T00:52:47.190Z,0.00
2023-03-17T00:53:47.162Z,0.00
2023-03-17T00:54:47.532Z,0.00
2023-03-17T00:55:47.099Z,0.00
2023-03-17T00:56:47.067Z,0.00
2023-03-17T00:57:47.035Z,0.00
2023-03-17T00:58:47.002Z,0.00
2023-03-17T00:59:46.974Z,0.00
2023-03-17T01:00:47.020Z,0.00
2023-03-17T01:01:46.953Z,0.00
2023-03-17T01:02:46.894Z,0.00
2023-03-17T01:03:46.848Z,0.00
2023-03-17T01:04:52.828Z,0.00
2023-03-17T01:05:46.783Z,0.00
2023-03-17T01:06:46.747Z,0.00
2023-03-17T01:07:46.719Z,0.00
2023-03-17T01:08:46.682Z,0.00
2023-03-17T01:09:46.654Z,0.00
2023-03-17T01:10:46.644Z,0.00
2023-03-17T01:11:46.592Z,0.00
2023-03-17T01:12:46.557Z,0.00
2023-03-17T01:13:46.536Z,0.00
2023-03-17T01:14:46.495Z,0.00
2023-03-17T01:15:46.467Z,0.00
2023-03-17T01:16:46.471Z,0.00
2023-03-17T01:17:46.408Z,0.00
2023-03-17T01:18:46.405Z,0.00
2023-03-17T01:19:46.337Z,0.00
2023-03-17T01:20:46.303Z,0.00
2023-03-17T01:21:46.274Z,0.00
2023-03-17T01:22:46.242Z,0.00
2023-03-17T01:23:46.209Z,0.00
2023-03-17T01:24:46.176Z,0.00
2023-03-17T01:25:46.146Z,0.00
2023-03-17T01:26:46.132Z,0.00
2023-03-17T01:27:46.092Z,0.00
2023-03-17T01:28:46.053Z,0.00
2023-03-17T01:29:46.027Z,0.00
2023-03-17T01:30:45.987Z,0.00
2023-03-17T01:31:46.031Z,0.00
2023-03-17T01:32:45.947Z,0.00
2023-03-17T01:33:45.894Z,0.00
2023-03-17T01:34:45.866Z,0.00
2023-03-17T01:35:46.021Z,0.00
2023-03-17T01:36:45.798Z,0.00
2023-03-17T01:37:45.770Z,0.00
2023-03-17T01:38:45.737Z,0.00
2023-03-17T01:39:45.718Z,0.00
2023-03-17T01:40:45.667Z,0.00
2023-03-17T01:41:45.664Z,0.00
2023-03-17T01:42:45.629Z,0.00
2023-03-17T01:43:45.577Z,0.00
2023-03-17T01:44:45.545Z,0.00
2023-03-17T01:45:45.586Z,0.00
2023-03-17T01:46:45.487Z,0.00
2023-03-17T01:47:45.450Z,0.00
2023-03-17T01:48:45.421Z,0.00
2023-03-17T01:49:45.387Z,0.00
2023-03-17T01:50:45.354Z,0.00
2023-03-17T01:51:45.322Z,0.00
2023-03-17T01:52:45.288Z,0.00
2023-03-17T01:53:45.267Z,0.00
2023-03-17T01:54:45.241Z,0.00
2023-03-17T01:55:45.195Z,0.00
2023-03-17T01:56:45.161Z,0.00
2023-03-17T01:57:45.131Z,0.00
2023-03-17T01:58:45.121Z,0.00
2023-03-17T01:59:45.064Z,0.00
2023-03-17T02:00:45.063Z,0.00
2023-03-17T02:01:45.002Z,0.00
2023-03-17T02:02:44.969Z,0.00
2023-03-17T02:03:44.938Z,0.00
2023-03-17T02:04:44.906Z,0.00
2023-03-17T02:05:44.875Z,0.00
2023-03-17T02:06:57.572Z,0.00
2023-03-17T02:07:44.820Z,0.00
2023-03-17T02:08:44.775Z,0.00
2023-03-17T02:09:44.776Z,0.00
2023-03-17T02:10:44.721Z,0.00
2023-03-17T02:11:44.682Z,0.00
2023-03-17T02:12:44.648Z,0.00
2023-03-17T02:13:44.649Z,0.00
2023-03-17T02:14:44.606Z,0.00
2023-03-17T02:15:44.554Z,0.00
2023-03-17T02:16:44.535Z,0.00
2023-03-17T02:17:44.490Z,0.00
2023-03-17T02:18:44.456Z,0.00
2023-03-17T02:19:44.428Z,0.00
2023-03-17T02:20:44.393Z,0.00
2023-03-17T02:21:44.361Z,0.00
2023-03-17T02:22:44.331Z,0.00
2023-03-17T02:23:44.298Z,0.00
2023-03-17T02:24:44.264Z,0.00
2023-03-17T02:25:44.232Z,0.00
2023-03-17T02:26:44.202Z,0.00
2023-03-17T02:27:44.183Z,0.00
2023-03-17T02:28:44.137Z,0.00
2023-03-17T02:29:44.103Z,0.00
2023-03-17T02:30:44.128Z,0.00
2023-03-17T02:31:44.043Z,0.00
2023-03-17T02:32:44.100Z,0.00
2023-03-17T02:33:43.979Z,0.00
2023-03-17T02:34:43.949Z,0.00
2023-03-17T02:35:43.936Z,0.00
2023-03-17T02:36:43.951Z,0.00
2023-03-17T02:37:43.855Z,0.00
2023-03-17T02:38:43.829Z,0.00
2023-03-17T02:39:43.790Z,0.00
2023-03-17T02:40:43.754Z,0.00
2023-03-17T02:41:43.736Z,0.00
2023-03-17T02:42:43.693Z,0.00
2023-03-17T02:43:43.667Z,0.00
2023-03-17T02:44:43.634Z,0.00
2023-03-17T02:45:43.639Z,0.00
2023-03-17T02:46:43.593Z,0.00
2023-03-17T02:47:43.537Z,0.00
2023-03-17T02:48:43.502Z,0.00
2023-03-17T02:49:43.474Z,0.00
2023-03-17T02:50:43.436Z,0.00
2023-03-17T02:51:43.410Z,0.00
2023-03-17T02:52:43.375Z,0.00
2023-03-17T02:53:43.343Z,0.00
2023-03-17T02:54:43.311Z,0.00
2023-03-17T02:55:43.283Z,0.00
2023-03-17T02:56:43.246Z,0.00
2023-03-17T02:57:43.216Z,0.00
2023-03-17T02:58:43.184Z,0.00
2023-03-17T02:59:43.152Z,0.00
2023-03-17T03:00:43.120Z,0.00
2023-03-17T03:01:43.123Z,0.00
2023-03-17T03:02:43.178Z,0.00
2023-03-17T03:03:43.030Z,0.00
2023-03-17T03:04:42.992Z,0.00
2023-03-17T03:05:42.968Z,0.00
2023-03-17T03:06:42.940Z,0.00
2023-03-17T03:07:42.898Z,0.00
2023-03-17T03:08:42.871Z,0.00
2023-03-17T03:09:42.839Z,0.00
2023-03-17T03:10:42.804Z,0.00
2023-03-17T03:11:42.786Z,0.00
2023-03-17T03:12:42.750Z,0.00
2023-03-17T03:13:42.712Z,0.00
2023-03-17T03:14:42.677Z,0.00
2023-03-17T03:15:42.757Z,0.00
2023-03-17T03:16:42.616Z,0.00
2023-03-17T03:17:42.582Z,0.00
2023-03-17T03:18:42.569Z,0.00
2023-03-17T03:19:42.534Z,0.00
2023-03-17T03:20:42.487Z,0.00
2023-03-17T03:21:42.456Z,0.00
2023-03-17T03:22:42.423Z,0.00
2023-03-17T03:23:42.409Z,0.00
2023-03-17T03:24:42.359Z,0.00
2023-03-17T03:25:42.325Z,0.00
2023-03-17T03:26:42.295Z,0.00
2023-03-17T03:27:42.263Z,0.00
2023-03-17T03:28:42.232Z,0.00
2023-03-17T03:29:42.200Z,0.00
2023-03-17T03:30:42.196Z,0.00
2023-03-17T03:31:42.135Z,0.00
2023-03-17T03:32:42.126Z,0.00
2023-03-17T03:33:42.071Z,0.00
2023-03-17T03:34:42.162Z,0.00
2023-03-17T03:35:42.046Z,0.00
2023-03-17T03:36:41.982Z,0.00
2023-03-17T03:37:41.943Z,0.00
2023-03-17T03:38:41.910Z,0.00
2023-03-17T03:39:41.880Z,0.00
2023-03-17T03:40:41.855Z,0.00
2023-03-17T03:41:41.816Z,0.00
2023-03-17T03:42:41.785Z,0.00
2023-03-17T03:43:41.753Z,0.00
2023-03-17T03:44:41.722Z,0.00
2023-03-17T03:45:41.686Z,0.00
2023-03-17T03:46:41.725Z,0.00
2023-03-17T03:47:41.623Z,0.00
2023-03-17T03:48:41.590Z,0.00
2023-03-17T03:49:41.558Z,0.00
2023-03-17T03:50:41.555Z,0.00
2023-03-17T03:51:41.505Z,0.00
2023-03-17T03:52:41.468Z,0.00
2023-03-17T03:53:41.434Z,0.00
2023-03-17T03:54:41.396Z,0.00
2023-03-17T03:55:41.368Z,0.00
2023-03-17T03:56:41.333Z,0.00
2023-03-17T03:57:41.300Z,0.00
2023-03-17T03:58:41.271Z,0.00
2023-03-17T03:59:41.242Z,0.00
2023-03-17T04:00:41.205Z,0.00
2023-03-17T04:01:41.173Z,0.00
2023-03-17T04:02:41.180Z,0.00
2023-03-17T04:03:41.110Z,0.00
2023-03-17T04:04:41.168Z,0.00
2023-03-17T04:05:41.058Z,0.00
2023-03-17T04:06:41.039Z,0.00
2023-03-17T04:07:40.983Z,0.00
2023-03-17T04:08:40.951Z,0.00
2023-03-17T04:09:40.933Z,0.00
2023-03-17T04:10:40.888Z,0.00
2023-03-17T04:11:40.873Z,0.00
2023-03-17T04:12:40.830Z,0.00
2023-03-17T04:13:40.798Z,0.00
2023-03-17T04:14:40.761Z,0.00
2023-03-17T04:15:40.729Z,0.00
2023-03-17T04:16:43.266Z,0.00
2023-03-17T04:17:40.666Z,0.00
2023-03-17T04:18:40.697Z,0.00
2023-03-17T04:19:40.606Z,0.00
2023-03-17T04:20:40.570Z,0.00
2023-03-17T04:21:40.533Z,0.00
2023-03-17T04:22:40.525Z,0.00
2023-03-17T04:23:40.480Z,0.00
2023-03-17T04:24:40.442Z,0.00
2023-03-17T04:25:40.412Z,0.00
2023-03-17T04:26:40.376Z,0.00
2023-03-17T04:27:40.344Z,0.00
2023-03-17T04:28:40.311Z,0.00
2023-03-17T04:29:40.280Z,0.00
2023-03-17T04:30:40.249Z,0.00
2023-03-17T04:31:40.249Z,0.00
2023-03-17T04:32:40.253Z,0.00
2023-03-17T04:33:40.149Z,0.00
2023-03-17T04:34:40.120Z,0.00
2023-03-17T04:35:40.113Z,0.00
2023-03-17T04:36:40.054Z,0.00
2023-03-17T04:37:40.021Z,0.00
2023-03-17T04:38:40.014Z,0.00
2023-03-17T04:39:39.958Z,0.00
2023-03-17T04:40:39.926Z,0.00
2023-03-17T04:41:39.892Z,0.00
2023-03-17T04:42:39.863Z,0.00
2023-03-17T04:43:39.828Z,0.00
2023-03-17T04:44:39.797Z,0.00
2023-03-17T04:45:39.809Z,0.00
2023-03-17T04:46:39.742Z,0.00
2023-03-17T04:47:39.701Z,0.00
2023-03-17T04:48:39.668Z,0.00
2023-03-17T04:49:39.647Z,0.00
2023-03-17T04:50:39.603Z,0.00
2023-03-17T04:51:39.572Z,0.00
2023-03-17T04:52:39.540Z,0.00
2023-03-17T04:53:39.514Z,0.00
2023-03-17T04:54:39.495Z,0.00
2023-03-17T04:55:39.442Z,0.00
2023-03-17T04:56:39.414Z,0.00
2023-03-17T04:57:39.411Z,0.00
2023-03-17T04:58:39.348Z,0.00
2023-03-17T04:59:39.315Z,0.00
2023-03-17T05:00:39.283Z,0.00
2023-03-17T05:01:39.391Z,0.00
2023-03-17T05:02:39.345Z,0.00
2023-03-17T05:03:39.191Z,0.00
2023-03-17T05:04:39.153Z,0.00
2023-03-17T05:05:39.123Z,4.00
2023-03-17T05:06:39.097Z,4.00
2023-03-17T05:07:39.065Z,4.00
2023-03-17T05:08:39.026Z,4.00
2023-03-17T05:09:38.997Z,4.00
2023-03-17T05:10:38.981Z,4.00
2023-03-17T05:11:38.930Z,4.00
2023-03-17T05:12:38.895Z,4.00
2023-03-17T05:13:38.863Z,4.00
2023-03-17T05:14:38.833Z,4.00
2023-03-17T05:15:38.797Z,8.00
2023-03-17T05:16:38.926Z,8.00
2023-03-17T05:17:38.737Z,12.00
2023-03-17T05:18:38.706Z,12.00
2023-03-17T05:19:38.669Z,12.00
2023-03-17T05:20:38.638Z,16.00
2023-03-17T05:21:38.619Z,16.00
2023-03-17T05:22:38.577Z,20.00
2023-03-17T05:23:38.539Z,24.00
2023-03-17T05:24:38.509Z,28.00
2023-03-17T05:25:38.475Z,32.00
2023-03-17T05:26:38.462Z,40.00
2023-03-17T05:27:38.411Z,48.00
2023-03-17T05:28:38.379Z,52.00
2023-03-17T05:29:38.343Z,60.00
2023-03-17T05:30:38.361Z,72.00
2023-03-17T05:31:38.283Z,76.00
2023-03-17T05:32:38.272Z,92.00
2023-03-17T05:33:38.222Z,100.00
2023-03-17T05:34:38.183Z,112.00
2023-03-17T05:35:38.177Z,120.00
2023-03-17T05:36:38.122Z,136.00
2023-03-17T05:37:38.085Z,148.00
2023-03-17T05:38:38.057Z,156.00
2023-03-17T05:39:38.035Z,176.00
2023-03-17T05:40:37.988Z,192.00
2023-03-17T05:41:37.959Z,208.00
2023-03-17T05:42:37.957Z,228.00
2023-03-17T05:43:37.892Z,252.00
2023-03-17T05:44:37.863Z,276.00
2023-03-17T05:45:37.828Z,304.00
2023-03-17T05:46:37.798Z,336.00
2023-03-17T05:47:37.768Z,364.00
2023-03-17T05:48:37.732Z,400.00
2023-03-17T05:49:37.697Z,436.00
2023-03-17T05:50:37.668Z,472.00
2023-03-17T05:51:37.634Z,504.00
2023-03-17T05:52:37.604Z,540.00
2023-03-17T05:53:37.570Z,576.00
2023-03-17T05:54:37.561Z,616.00
2023-03-17T05:55:37.506Z,652.00
2023-03-17T05:56:37.479Z,696.00
2023-03-17T05:57:37.454Z,740.00
2023-03-17T05:58:37.429Z,776.00
2023-03-17T05:59:37.383Z,816.00
2023-03-17T06:00:37.347Z,852.00
2023-03-17T06:01:37.313Z,884.00
2023-03-17T06:02:37.365Z,916.00
2023-03-17T06:03:37.284Z,948.00
2023-03-17T06:04:37.219Z,984.00
2023-03-17T06:05:37.186Z,1028.00
2023-03-17T06:06:37.156Z,1064.00
2023-03-17T06:07:50.867Z,1116.00
2023-03-17T06:08:37.091Z,1172.00
2023-03-17T06:09:37.057Z,1232.00
2023-03-17T06:10:37.026Z,1288.00
2023-03-17T06:11:37.020Z,1348.00
2023-03-17T06:12:36.962Z,1408.00
2023-03-17T06:13:36.928Z,1472.00
2023-03-17T06:14:36.917Z,1540.00
2023-03-17T06:15:36.907Z,1604.00
2023-03-17T06:16:36.866Z,1672.00
2023-03-17T06:17:36.799Z,1732.00
2023-03-17T06:18:36.778Z,1796.00
2023-03-17T06:19:36.737Z,1864.00
2023-03-17T06:20:36.802Z,1920.00
2023-03-17T06:21:36.672Z,1996.00
2023-03-17T06:22:36.641Z,2064.00
2023-03-17T06:23:36.631Z,2140.00
2023-03-17T06:24:36.577Z,2204.00
2023-03-17T06:25:36.549Z,2232.00
2023-03-17T06:26:36.513Z,2272.00
2023-03-17T06:27:36.480Z,2348.00
2023-03-17T06:28:36.448Z,2412.00
2023-03-17T06:29:36.422Z,2476.00
2023-03-17T06:30:38.178Z,2520.00
2023-03-17T06:31:36.407Z,2600.00
2023-03-17T06:32:36.340Z,2640.00
2023-03-17T06:33:36.286Z,2704.00
2023-03-17T06:34:36.256Z,2792.00
2023-03-17T06:35:36.279Z,2856.00
2023-03-17T06:36:38.550Z,2920.00
2023-03-17T06:37:36.158Z,2968.00
2023-03-17T06:38:36.127Z,3028.00
2023-03-17T06:39:36.095Z,3096.00
2023-03-17T06:40:36.069Z,3132.00
2023-03-17T06:41:36.034Z,3144.00
2023-03-17T06:42:36.001Z,3152.00
2023-03-17T06:43:35.969Z,3176.00
2023-03-17T06:44:35.937Z,3280.00
2023-03-17T06:45:35.912Z,3348.00
2023-03-17T06:46:35.973Z,3428.00
2023-03-17T06:47:35.841Z,3504.00
2023-03-17T06:48:35.840Z,3548.00
2023-03-17T06:49:35.779Z,3528.00
2023-03-17T06:50:35.750Z,3572.00
2023-03-17T06:51:35.717Z,3704.00
2023-03-17T06:52:35.684Z,3700.00
2023-03-17T06:53:35.652Z,3720.00
2023-03-17T06:54:35.622Z,3676.00
2023-03-17T06:55:35.592Z,3764.00
2023-03-17T06:56:35.559Z,3768.00
2023-03-17T06:57:35.527Z,3840.00
2023-03-17T06:58:35.499Z,3768.00
2023-03-17T06:59:35.463Z,3796.00
2023-03-17T07:00:35.440Z,3876.00
2023-03-17T07:01:35.412Z,3964.00
2023-03-17T07:02:35.389Z,4088.00
2023-03-17T07:03:36.251Z,4116.00
2023-03-17T07:04:35.352Z,4152.00
2023-03-17T07:05:35.322Z,4140.00
2023-03-17T07:06:35.246Z,4252.00
2023-03-17T07:07:35.215Z,4056.00
2023-03-17T07:08:35.220Z,4004.00
2023-03-17T07:09:35.154Z,4000.00
2023-03-17T07:10:35.128Z,4188.00
2023-03-17T07:11:35.090Z,4152.00
2023-03-17T07:12:35.079Z,4092.00
2023-03-17T07:13:35.026Z,4044.00
2023-03-17T07:14:35.017Z,4060.00
2023-03-17T07:15:35.156Z,4088.00
2023-03-17T07:16:34.982Z,4100.00
2023-03-17T07:17:34.985Z,4084.00
2023-03-17T07:18:34.911Z,4108.00
2023-03-17T07:19:34.875Z,4080.00
2023-03-17T07:20:34.811Z,4012.00
2023-03-17T07:21:34.819Z,4048.00
2023-03-17T07:22:34.799Z,4012.00
2023-03-17T07:23:34.729Z,4004.00
2023-03-17T07:24:34.705Z,3996.00
2023-03-17T07:25:34.664Z,4036.00
2023-03-17T07:26:34.634Z,4028.00
2023-03-17T07:27:34.602Z,4088.00
2023-03-17T07:28:34.570Z,4004.00
2023-03-17T07:29:34.578Z,4040.00
2023-03-17T07:30:34.508Z,4168.00
2023-03-17T07:31:34.536Z,4128.00
2023-03-17T07:32:34.469Z,4168.00
2023-03-17T07:33:34.416Z,4336.00
2023-03-17T07:34:34.413Z,4420.00
2023-03-17T07:35:34.887Z,4456.00
2023-03-17T07:36:34.321Z,4456.00
2023-03-17T07:37:34.300Z,4460.00
2023-03-17T07:38:34.262Z,4424.00
2023-03-17T07:39:34.232Z,4520.00
2023-03-17T07:40:35.415Z,4528.00
2023-03-17T07:41:34.172Z,4600.00
2023-03-17T07:42:34.136Z,4660.00
2023-03-17T07:43:34.110Z,4700.00
2023-03-17T07:44:34.104Z,4760.00
2023-03-17T07:45:34.386Z,4736.00
2023-03-17T07:46:34.018Z,4732.00
2023-03-17T07:47:33.987Z,4772.00
2023-03-17T07:48:33.982Z,4752.00
2023-03-17T07:49:41.173Z,4852.00
2023-03-17T07:50:33.914Z,4868.00
2023-03-17T07:51:33.885Z,5276.00
2023-03-17T07:52:33.836Z,5416.00
2023-03-17T07:53:33.829Z,5592.00
2023-03-17T07:54:33.776Z,5592.00
2023-03-17T07:55:33.808Z,5660.00
2023-03-17T07:56:33.729Z,5784.00
2023-03-17T07:57:33.703Z,5840.00
2023-03-17T07:58:33.651Z,5820.00
2023-03-17T07:59:33.669Z,5800.00
2023-03-17T08:00:34.115Z,5712.00
2023-03-17T08:01:33.564Z,5640.00
2023-03-17T08:02:33.576Z,5736.00
2023-03-17T08:03:33.558Z,5772.00
2023-03-17T08:04:33.471Z,5908.00
2023-03-17T08:05:33.441Z,6024.00
2023-03-17T08:06:33.428Z,6028.00
2023-03-17T08:07:33.436Z,6068.00
2023-03-17T08:08:33.352Z,6084.00
2023-03-17T08:09:33.345Z,5724.00
2023-03-17T08:10:33.838Z,5584.00
2023-03-17T08:11:33.264Z,5636.00
2023-03-17T08:12:33.232Z,5660.00
2023-03-17T08:13:33.204Z,5476.00
2023-03-17T08:14:33.183Z,5396.00
2023-03-17T08:15:33.146Z,5356.00
2023-03-17T08:16:33.187Z,5200.00
2023-03-17T08:17:33.084Z,5116.00
2023-03-17T08:18:33.091Z,5324.00
2023-03-17T08:19:33.023Z,5196.00
2023-03-17T08:20:33.366Z,5172.00
2023-03-17T08:21:32.987Z,5176.00
2023-03-17T08:22:32.973Z,5068.00
2023-03-17T08:23:32.906Z,5172.00
2023-03-17T08:24:32.922Z,5112.00
2023-03-17T08:25:32.844Z,5024.00
2023-03-17T08:26:32.815Z,4844.00
2023-03-17T08:27:33.995Z,5164.00
2023-03-17T08:28:32.755Z,5312.00
2023-03-17T08:29:32.766Z,5396.00
2023-03-17T08:30:33.890Z,5328.00
2023-03-17T08:31:32.763Z,5688.00
2023-03-17T08:32:32.707Z,5592.00
2023-03-17T08:33:32.622Z,5632.00
2023-03-17T08:34:32.578Z,5620.00
2023-03-17T08:35:32.974Z,5508.00
2023-03-17T08:36:32.517Z,5520.00
2023-03-17T08:37:32.492Z,5468.00
2023-03-17T08:38:32.482Z,5368.00
2023-03-17T08:39:32.434Z,5236.00
2023-03-17T08:40:32.713Z,5104.00
2023-03-17T08:41:32.375Z,4988.00
2023-03-17T08:42:32.350Z,4836.00
2023-03-17T08:43:32.327Z,4552.00
2023-03-17T08:44:32.285Z,4612.00
2023-03-17T08:45:32.652Z,4580.00
2023-03-17T08:46:32.311Z,4508.00
2023-03-17T08:47:32.200Z,4452.00
2023-03-17T08:48:32.170Z,4328.00
2023-03-17T08:49:32.141Z,4328.00
2023-03-17T08:50:32.412Z,4404.00
2023-03-17T08:51:32.112Z,4464.00
2023-03-17T08:52:32.056Z,4464.00
2023-03-17T08:53:32.024Z,4864.00
2023-03-17T08:54:32.040Z,5036.00
2023-03-17T08:55:31.967Z,5296.00
2023-03-17T08:56:31.938Z,5444.00
2023-03-17T08:57:31.910Z,5648.00
2023-03-17T08:58:31.878Z,5692.00
2023-03-17T08:59:31.848Z,5688.00
2023-03-17T09:00:32.290Z,5564.00
2023-03-17T09:01:31.815Z,5392.00
2023-03-17T09:02:31.848Z,5296.00
2023-03-17T09:03:31.733Z,5308.00
2023-03-17T09:04:31.701Z,5484.00
2023-03-17T09:05:32.119Z,5616.00
2023-03-17T09:06:31.652Z,5812.00
2023-03-17T09:07:31.692Z,5912.00
2023-03-17T09:08:31.585Z,6164.00
2023-03-17T09:09:31.565Z,6024.00
2023-03-17T09:10:31.794Z,5876.00
2023-03-17T09:11:31.535Z,5892.00
2023-03-17T09:12:33.191Z,5968.00
2023-03-17T09:13:31.445Z,5748.00
2023-03-17T09:14:40.118Z,5976.00
2023-03-17T09:15:31.639Z,6084.00
2023-03-17T09:16:31.398Z,6152.00
2023-03-17T09:17:31.331Z,6260.00
2023-03-17T09:18:31.345Z,6324.00
2023-03-17T09:19:31.273Z,6448.00
2023-03-17T09:20:31.393Z,6480.00
2023-03-17T09:21:31.226Z,6496.00
2023-03-17T09:22:31.182Z,6452.00
2023-03-17T09:23:31.174Z,6528.00
2023-03-17T09:24:31.133Z,6568.00
2023-03-17T09:25:31.097Z,6696.00
2023-03-17T09:26:31.086Z,6780.00
2023-03-17T09:27:31.043Z,7200.00
2023-03-17T09:28:31.013Z,7440.00
2023-03-17T09:29:31.001Z,7544.00
2023-03-17T09:30:31.211Z,7712.00
2023-03-17T09:31:30.977Z,7880.00
2023-03-17T09:32:30.938Z,7936.00
2023-03-17T09:33:30.872Z,8084.00
2023-03-17T09:34:30.841Z,8084.00
2023-03-17T09:35:30.880Z,8088.00
2023-03-17T09:36:30.782Z,8152.00
2023-03-17T09:37:30.756Z,8396.00
2023-03-17T09:38:30.726Z,8552.00
2023-03-17T09:39:30.713Z,8708.00
2023-03-17T09:40:31.179Z,8804.00
2023-03-17T09:41:30.645Z,8892.00
2023-03-17T09:42:30.635Z,9060.00
2023-03-17T09:43:30.588Z,9300.00
2023-03-17T09:44:30.559Z,9440.00
2023-03-17T09:45:30.537Z,9476.00
2023-03-17T09:46:30.566Z,9532.00
2023-03-17T09:47:30.477Z,9568.00
2023-03-17T09:48:30.447Z,9632.00
2023-03-17T09:49:30.421Z,9904.00
2023-03-17T09:50:30.659Z,9992.00
2023-03-17T09:51:30.367Z,10044.00
2023-03-17T09:52:30.346Z,10044.00
2023-03-17T09:53:30.311Z,10060.00
2023-03-17T09:54:30.282Z,10040.00
2023-03-17T09:55:30.725Z,10324.00
2023-03-17T09:56:30.229Z,10312.00
2023-03-17T09:57:30.204Z,10448.00
2023-03-17T09:58:30.203Z,10516.00
2023-03-17T09:59:30.173Z,10564.00
2023-03-17T10:00:30.128Z,10432.00
2023-03-17T10:01:30.170Z,10440.00
2023-03-17T10:02:30.091Z,10456.00
2023-03-17T10:03:30.112Z,10396.00
2023-03-17T10:04:30.078Z,10404.00
2023-03-17T10:05:30.509Z,10372.00
2023-03-17T10:06:29.965Z,10376.00
2023-03-17T10:07:29.932Z,10272.00
2023-03-17T10:08:31.965Z,10224.00
2023-03-17T10:09:29.911Z,10192.00
2023-03-17T10:10:30.159Z,10112.00
2023-03-17T10:11:29.826Z,10120.00
2023-03-17T10:12:29.805Z,10088.00
2023-03-17T10:13:29.783Z,10104.00
2023-03-17T10:14:29.763Z,10124.00
2023-03-17T10:15:30.143Z,10140.00
2023-03-17T10:16:29.769Z,10092.00
2023-03-17T10:17:29.664Z,10072.00
2023-03-17T10:18:29.637Z,10064.00
2023-03-17T10:19:29.617Z,10048.00
2023-03-17T10:20:29.584Z,9992.00
2023-03-17T10:21:29.562Z,9944.00
2023-03-17T10:22:29.533Z,9884.00
2023-03-17T10:23:29.509Z,9860.00
2023-03-17T10:24:29.484Z,9872.00
2023-03-17T10:25:29.910Z,9832.00
2023-03-17T10:26:29.444Z,9716.00
2023-03-17T10:27:29.408Z,9684.00
2023-03-17T10:28:29.373Z,9728.00
2023-03-17T10:29:29.348Z,9736.00
2023-03-17T10:30:29.856Z,9740.00
2023-03-17T10:31:29.400Z,9616.00
2023-03-17T10:32:29.347Z,9616.00
2023-03-17T10:33:29.243Z,9632.00
2023-03-17T10:34:29.241Z,9644.00
2023-03-17T10:35:29.852Z,9612.00
2023-03-17T10:36:29.166Z,9716.00
2023-03-17T10:37:29.140Z,9820.00
2023-03-17T10:38:29.118Z,9728.00
2023-03-17T10:39:31.474Z,9752.00
2023-03-17T10:40:29.410Z,9764.00
2023-03-17T10:41:29.032Z,9768.00
2023-03-17T10:42:29.014Z,9840.00
2023-03-17T10:43:28.979Z,9988.00
2023-03-17T10:44:28.955Z,10248.00
2023-03-17T10:45:28.930Z,10312.00
2023-03-17T10:46:28.980Z,10408.00
2023-03-17T10:47:28.884Z,10488.00
2023-03-17T10:48:28.853Z,10608.00
2023-03-17T10:49:28.823Z,10732.00
2023-03-17T10:50:28.853Z,10824.00
2023-03-17T10:51:28.771Z,10844.00
2023-03-17T10:52:28.742Z,10840.00
2023-03-17T10:53:28.726Z,10908.00
2023-03-17T10:54:28.710Z,10952.00
2023-03-17T10:55:28.670Z,11060.00
2023-03-17T10:56:28.641Z,11112.00
2023-03-17T10:57:28.624Z,11212.00
2023-03-17T10:58:28.593Z,11264.00
2023-03-17T10:59:28.629Z,11308.00
2023-03-17T11:00:28.817Z,11356.00
2023-03-17T11:01:28.548Z,11364.00
2023-03-17T11:02:28.512Z,11344.00
2023-03-17T11:03:28.535Z,11260.00
2023-03-17T11:04:28.453Z,11256.00
2023-03-17T11:05:28.410Z,11160.00
2023-03-17T11:06:28.381Z,11088.00
2023-03-17T11:07:28.357Z,10976.00
2023-03-17T11:08:28.330Z,11004.00
2023-03-17T11:09:28.306Z,10916.00
2023-03-17T11:10:28.320Z,10748.00
2023-03-17T11:11:28.256Z,10856.00
2023-03-17T11:12:28.233Z,10532.00
2023-03-17T11:13:28.210Z,10368.00
2023-03-17T11:14:28.181Z,10248.00
2023-03-17T11:15:28.153Z,10132.00
2023-03-17T11:16:28.232Z,9960.00
2023-03-17T11:17:28.103Z,9760.00
2023-03-17T11:18:28.115Z,9712.00
2023-03-17T11:19:28.048Z,9752.00
2023-03-17T11:20:28.089Z,9560.00
2023-03-17T11:21:27.996Z,9432.00
2023-03-17T11:22:27.971Z,9300.00
2023-03-17T11:23:27.947Z,9300.00
2023-03-17T11:24:27.919Z,9240.00
2023-03-17T11:25:27.902Z,9224.00
2023-03-17T11:26:27.880Z,9212.00
2023-03-17T11:27:27.842Z,9316.00
2023-03-17T11:28:27.830Z,9268.00
2023-03-17T11:29:27.799Z,9304.00
2023-03-17T11:30:27.797Z,9232.00
2023-03-17T11:31:27.772Z,9268.00
2023-03-17T11:32:27.756Z,9444.00
2023-03-17T11:33:27.692Z,9600.00
2023-03-17T11:34:27.687Z,9456.00
2023-03-17T11:35:27.641Z,9196.00
2023-03-17T11:36:27.614Z,9232.00
2023-03-17T11:37:27.590Z,9088.00
2023-03-17T11:38:27.559Z,9036.00
2023-03-17T11:39:27.533Z,8784.00
2023-03-17T11:40:27.505Z,8608.00
2023-03-17T11:41:27.484Z,8552.00
2023-03-17T11:42:27.463Z,8040.00
2023-03-17T11:43:27.431Z,7776.00
2023-03-17T11:44:27.401Z,7568.00
2023-03-17T11:45:27.381Z,7416.00
2023-03-17T11:46:27.429Z,7280.00
2023-03-17T11:47:27.326Z,6996.00
2023-03-17T11:48:27.299Z,6604.00
2023-03-17T11:49:27.275Z,6548.00
2023-03-17T11:50:27.266Z,6608.00
2023-03-17T11:51:27.222Z,6328.00
2023-03-17T11:52:27.196Z,6460.00
2023-03-17T11:53:27.172Z,6204.00
2023-03-17T11:54:27.149Z,6216.00
2023-03-17T11:55:27.121Z,6132.00
2023-03-17T11:56:27.093Z,5592.00
2023-03-17T11:57:27.081Z,5384.00
2023-03-17T11:58:27.054Z,5536.00
2023-03-17T11:59:27.024Z,5828.00
2023-03-17T12:00:26.989Z,5716.00
2023-03-17T12:01:26.960Z,6004.00
2023-03-17T12:02:26.938Z,6032.00
2023-03-17T12:03:26.943Z,6004.00
2023-03-17T12:04:26.924Z,6092.00
2023-03-17T12:05:26.865Z,6100.00
2023-03-17T12:06:26.851Z,6116.00
2023-03-17T12:07:26.805Z,6040.00
2023-03-17T12:08:26.795Z,6056.00
2023-03-17T12:09:26.752Z,6192.00
2023-03-17T12:10:26.730Z,6260.00
2023-03-17T12:11:26.701Z,6316.00
2023-03-17T12:12:26.675Z,6292.00
2023-03-17T12:13:26.659Z,6404.00
2023-03-17T12:14:26.625Z,6516.00
2023-03-17T12:15:26.621Z,6552.00
2023-03-17T12:16:26.572Z,6684.00
2023-03-17T12:17:27.611Z,6836.00
2023-03-17T12:18:26.519Z,6928.00
2023-03-17T12:19:26.494Z,6976.00
2023-03-17T12:20:26.465Z,7100.00
2023-03-17T12:21:26.445Z,7168.00
2023-03-17T12:22:26.440Z,7180.00
2023-03-17T12:23:26.392Z,7064.00
2023-03-17T12:24:26.365Z,6952.00
2023-03-17T12:25:26.338Z,6720.00
2023-03-17T12:26:26.314Z,6624.00
2023-03-17T12:27:26.287Z,6612.00
2023-03-17T12:28:26.262Z,6672.00
2023-03-17T12:29:26.240Z,6732.00
2023-03-17T12:30:26.210Z,6704.00
2023-03-17T12:31:26.266Z,6672.00
2023-03-17T12:32:26.296Z,6716.00
2023-03-17T12:33:26.131Z,6812.00
2023-03-17T12:34:26.109Z,6588.00